createdAt,value
2024-03-16T05:00:32.420Z,9.81
2024-03-16T05:04:35.802Z,9.85
2024-03-16T05:08:38.595Z,9.87
2024-03-16T05:12:41.321Z,9.91
2024-03-16T05:16:44.018Z,9.93
2024-03-16T05:20:47.640Z,9.91
2024-03-16T05:24:50.409Z,9.98
2024-03-16T05:28:53.076Z,9.98
2024-03-16T05:32:55.923Z,9.94
2024-03-16T05:36:59.062Z,9.91
2024-03-16T05:41:01.796Z,9.92
2024-03-16T05:45:04.691Z,9.96
2024-03-16T05:49:07.416Z,9.92
2024-03-16T05:53:10.129Z,9.95
2024-03-16T05:57:12.777Z,10.00
2024-03-16T06:01:17.142Z,10.06
2024-03-16T06:05:19.957Z,10.13
2024-03-16T06:09:22.576Z,10.13
2024-03-16T06:13:25.249Z,10.22
2024-03-16T06:17:27.947Z,10.25
2024-03-16T06:21:30.613Z,10.36
2024-03-16T06:25:42.029Z,10.40
2024-03-16T06:29:52.797Z,10.39
2024-03-16T06:33:55.507Z,10.44
2024-03-16T06:38:01.859Z,10.46
2024-03-16T06:42:05.209Z,10.54
2024-03-16T06:46:09.504Z,10.59
2024-03-16T06:50:12.317Z,10.59
2024-03-16T06:54:14.966Z,10.55
2024-03-16T06:58:17.653Z,10.47
2024-03-16T07:02:20.396Z,10.53
2024-03-16T07:06:23.090Z,10.58
2024-03-16T07:10:25.846Z,10.72
2024-03-16T07:14:28.504Z,10.68
2024-03-16T07:18:31.208Z,10.72
2024-03-16T07:22:33.932Z,10.83
2024-03-16T07:26:36.583Z,10.95
2024-03-16T07:30:39.236Z,10.93
2024-03-16T07:34:41.954Z,11.04
2024-03-16T07:38:44.822Z,11.09
2024-03-16T07:42:47.493Z,11.03
2024-03-16T07:46:50.162Z,11.12
2024-03-16T07:50:52.800Z,11.18
2024-03-16T07:54:55.522Z,11.35
2024-03-16T07:58:58.543Z,11.48
2024-03-16T08:03:01.682Z,11.43
2024-03-16T08:07:05.199Z,11.39
2024-03-16T08:11:08.286Z,11.34
2024-03-16T08:15:11.807Z,11.66
2024-03-16T08:19:16.114Z,11.67
2024-03-16T08:23:20.065Z,11.45
2024-03-16T08:27:24.512Z,11.49
2024-03-16T08:31:29.479Z,11.38
2024-03-16T08:35:33.260Z,11.41
2024-03-16T08:39:36.127Z,11.65
2024-03-16T08:43:38.765Z,11.62
2024-03-16T08:47:42.508Z,11.69
2024-03-16T08:51:45.319Z,11.62
2024-03-16T08:55:48.356Z,11.52
2024-03-16T08:59:52.287Z,11.80
2024-03-16T09:03:55.017Z,11.86
2024-03-16T09:07:57.681Z,11.62
2024-03-16T09:12:00.379Z,11.43
2024-03-16T09:16:06.409Z,11.35
2024-03-16T09:20:10.781Z,10.81
2024-03-16T09:24:13.417Z,10.53
2024-03-16T09:28:16.080Z,9.89
2024-03-16T09:32:18.763Z,9.89
2024-03-16T09:36:21.732Z,10.05
2024-03-16T09:40:24.482Z,10.07
